Time;durP1;ratioP1;P1;durP2;ratioP2;P2;SDS_P1;SDS_P2;PMS_P1;PMS_P2;Temp;Humidity;BMP_temperature;BMP_pressure;BME280_temperature;BME280_humidity;BME280_pressure;Samples;Min_cycle;Max_cycle;Signal;HPM_P1;HPM_P2
2023/12/02 00:02:13;;;;;;;5.05;2.88;;;;;;;-5.41;72.39;100942.25;5095667;28;20027;-68
2023/12/02 00:04:39;;;;;;;5.07;2.90;;;;;;;-5.39;72.62;100932.53;5094167;28;20028;-68
2023/12/02 00:07:04;;;;;;;5.15;3.00;;;;;;;-5.43;72.38;100936.25;5094507;28;20032;-68
2023/12/02 00:09:30;;;;;;;5.53;3.00;;;;;;;-5.44;72.56;100932.78;5093652;28;20149;-67
2023/12/02 00:11:55;;;;;;;5.60;3.10;;;;;;;-5.41;72.25;100938.78;5072795;28;20016;-67
2023/12/02 00:14:21;;;;;;;4.47;2.72;;;;;;;-5.38;72.24;100931.56;5075895;28;20051;-69
2023/12/02 00:16:46;;;;;;;5.25;2.90;;;;;;;-5.44;72.20;100935.41;5093770;28;20032;-69
2023/12/02 00:19:12;;;;;;;4.47;2.78;;;;;;;-5.69;71.96;100907.22;5094020;28;20084;-69
2023/12/02 00:21:37;;;;;;;4.32;2.92;;;;;;;-5.53;72.20;100941.22;5095629;28;20716;-69
2023/12/02 00:24:03;;;;;;;3.85;2.85;;;;;;;-5.55;71.98;100937.00;5095171;28;20031;-69
2023/12/02 00:26:28;;;;;;;4.82;2.97;;;;;;;-5.53;72.23;100932.50;5095903;28;20020;-69
2023/12/02 00:28:54;;;;;;;5.13;2.70;;;;;;;-5.58;72.02;100926.69;5094715;28;20089;-69
2023/12/02 00:31:19;;;;;;;3.88;2.50;;;;;;;-5.54;71.96;100938.69;5095485;28;20419;-69
2023/12/02 00:33:45;;;;;;;6.57;2.95;;;;;;;-5.60;71.95;100931.19;5098308;28;20394;-70
2023/12/02 00:36:11;;;;;;;5.10;3.10;;;;;;;-5.62;72.10;100927.84;5088734;28;20032;-69
2023/12/02 00:38:36;;;;;;;5.43;2.63;;;;;;;-5.63;71.80;100934.00;5083145;28;20550;-69
2023/12/02 00:41:01;;;;;;;4.82;2.58;;;;;;;-5.80;71.84;100907.00;5087390;28;20036;-69
2023/12/02 00:43:27;;;;;;;3.92;2.78;;;;;;;-5.65;71.79;100928.84;5091152;28;20038;-69
2023/12/02 00:45:52;;;;;;;4.57;2.78;;;;;;;-5.63;72.03;100928.75;5115751;28;20058;-69
2023/12/02 00:48:17;;;;;;;4.60;3.03;;;;;;;-5.65;72.28;100925.41;5114163;28;20023;-69
2023/12/02 00:50:43;;;;;;;5.50;2.70;;;;;;;-5.67;72.18;100928.09;5099999;28;20039;-69
2023/12/02 00:53:08;;;;;;;3.78;2.20;;;;;;;-5.81;72.16;100913.19;5095927;28;20128;-69
2023/12/02 00:55:34;;;;;;;3.67;2.17;;;;;;;-5.79;72.16;100921.81;5110041;28;20046;-69
2023/12/02 00:57:59;;;;;;;3.17;2.35;;;;;;;-5.77;72.21;100921.72;5097346;28;20026;-69
2023/12/02 01:00:24;;;;;;;4.18;2.33;;;;;;;-5.78;72.01;100927.91;5113871;28;20539;-69
2023/12/02 01:02:50;;;;;;;4.15;2.60;;;;;;;-5.85;72.08;100919.56;5113588;28;20027;-70
2023/12/02 01:05:15;;;;;;;4.40;2.55;;;;;;;-5.92;71.83;100932.19;5112545;28;20031;-70
2023/12/02 01:07:40;;;;;;;4.00;2.55;;;;;;;-5.87;71.88;100926.66;5080502;28;20052;-69
2023/12/02 01:10:07;;;;;;;3.60;2.22;;;;;;;-5.91;71.43;100931.25;5098552;28;20556;-70
2023/12/02 01:12:32;;;;;;;3.70;2.08;;;;;;;-5.91;71.72;100926.00;5097899;28;20060;-69
2023/12/02 01:14:57;;;;;;;3.33;2.35;;;;;;;-5.94;71.89;100933.22;5098119;28;20066;-69
2023/12/02 01:17:22;;;;;;;5.35;2.28;;;;;;;-5.97;71.80;100929.00;5080454;28;20044;-69
2023/12/02 01:19:48;;;;;;;3.97;2.58;;;;;;;-6.01;72.15;100931.91;5080443;28;20027;-68
2023/12/02 01:22:14;;;;;;;3.83;2.15;;;;;;;-6.02;71.79;100935.47;5098742;28;20107;-69
2023/12/02 01:24:39;;;;;;;4.05;2.60;;;;;;;-6.01;71.99;100935.38;5114021;28;20019;-69
2023/12/02 01:27:05;;;;;;;3.65;2.08;;;;;;;-5.92;71.82;100934.81;5100837;28;20058;-69
2023/12/02 01:29:30;;;;;;;3.80;2.38;;;;;;;-5.99;71.33;100938.75;5117807;28;20035;-68
2023/12/02 01:31:55;;;;;;;3.50;2.50;;;;;;;-6.06;71.56;100933.94;5100545;28;20038;-69
2023/12/02 01:34:21;;;;;;;4.80;2.22;;;;;;;-6.12;71.78;100939.53;5119112;28;20024;-69
2023/12/02 01:36:46;;;;;;;4.03;2.53;;;;;;;-6.28;71.22;100942.22;5119088;28;20028;-69
2023/12/02 01:39:12;;;;;;;4.93;2.50;;;;;;;-6.33;71.39;100939.00;5115787;28;20123;-69
2023/12/02 01:41:38;;;;;;;5.57;2.88;;;;;;;-6.25;71.79;100948.13;5118923;28;20445;-68
2023/12/02 01:44:04;;;;;;;5.95;3.30;;;;;;;-6.13;71.55;100945.72;5117745;28;20070;-69
2023/12/02 01:46:29;;;;;;;4.78;3.20;;;;;;;-6.07;71.73;100940.13;5117793;28;20020;-69
2023/12/02 01:48:58;;;;;;;4.75;2.75;;;;;;;-6.08;71.61;100931.41;5118840;28;20509;-68
2023/12/02 01:51:25;;;;;;;4.43;2.88;;;;;;;-5.94;71.82;100943.72;5115291;28;20565;-69
2023/12/02 01:53:50;;;;;;;3.83;2.65;;;;;;;-5.87;71.88;100942.38;5114052;28;20024;-69
2023/12/02 01:56:16;;;;;;;4.68;2.75;;;;;;;-5.79;72.18;100940.16;5115252;28;20050;-69
2023/12/02 01:58:42;;;;;;;5.80;3.20;;;;;;;-5.74;71.96;100937.25;5085198;28;20489;-69
2023/12/02 02:01:08;;;;;;;4.80;2.97;;;;;;;-5.67;72.01;100935.94;5118374;28;20172;-69
2023/12/02 02:03:33;;;;;;;5.07;2.97;;;;;;;-5.57;72.26;100939.72;5118288;28;20076;-69
2023/12/02 02:05:59;;;;;;;6.57;3.53;;;;;;;-5.51;71.96;100938.50;5107344;28;20094;-68
2023/12/02 02:08:25;;;;;;;3.78;2.45;;;;;;;-5.44;71.69;100945.91;5097501;28;20063;-69
2023/12/02 02:10:59;;;;;;;4.07;2.42;;;;;;;-5.55;72.05;100914.25;5097394;28;20016;-69
2023/12/02 02:13:25;;;;;;;;;;;;;;;-5.40;71.79;100948.34;5096941;28;20078;-69
2023/12/02 02:15:50;;;;;;;5.85;2.63;;;;;;;-5.40;71.82;100951.78;5095602;28;19916;-69
2023/12/02 02:18:15;;;;;;;6.28;2.72;;;;;;;-5.40;71.97;100948.34;5099581;28;20032;-69
2023/12/02 02:20:41;;;;;;;5.07;2.70;;;;;;;-5.36;71.83;100952.44;5118260;28;20701;-69
2023/12/02 02:23:06;;;;;;;5.35;3.05;;;;;;;-5.37;72.02;100956.84;5118390;28;20023;-68
2023/12/02 02:25:32;;;;;;;4.18;2.78;;;;;;;-5.30;72.17;100960.78;5114412;28;20144;-70
2023/12/02 02:27:57;;;;;;;5.05;3.00;;;;;;;-5.18;72.09;100950.50;5105960;28;20557;-69
2023/12/02 02:30:24;;;;;;;4.88;2.85;;;;;;;-5.06;72.21;100952.38;5116427;28;20051;-68
2023/12/02 02:32:49;;;;;;;3.95;2.88;;;;;;;-5.04;72.01;100945.22;5116793;28;20114;-69
2023/12/02 02:35:15;;;;;;;4.10;2.75;;;;;;;-5.24;72.40;100920.22;5116714;28;20127;-69
2023/12/02 02:37:40;;;;;;;5.53;2.85;;;;;;;-5.03;72.19;100953.03;5116356;28;20030;-69
2023/12/02 02:40:06;;;;;;;6.55;2.80;;;;;;;-5.00;72.06;100949.34;5116199;28;20046;-69
2023/12/02 02:42:31;;;;;;;3.78;2.60;;;;;;;-4.96;72.02;100945.63;5116265;28;20027;-68
2023/12/02 02:44:57;;;;;;;5.35;3.28;;;;;;;-4.95;72.29;100947.28;5117758;27;20054;-69
2023/12/02 02:47:22;;;;;;;4.95;3.13;;;;;;;-4.91;72.24;100942.69;5115212;28;20651;-69
2023/12/02 02:49:48;;;;;;;5.70;3.53;;;;;;;-4.93;72.54;100942.78;5114739;28;20031;-69
2023/12/02 02:52:13;;;;;;;5.25;3.40;;;;;;;-4.90;72.74;100942.59;5097475;28;20134;-69
2023/12/02 02:54:39;;;;;;;5.68;3.38;;;;;;;-4.90;72.83;100942.59;5097151;28;20063;-69
2023/12/02 02:57:05;;;;;;;4.18;2.97;;;;;;;-4.87;72.80;100947.63;5115553;28;20036;-69
2023/12/02 02:59:31;;;;;;;4.68;2.92;;;;;;;-4.96;72.74;100949.06;5114819;28;20066;-69
2023/12/02 03:01:56;;;;;;;5.95;3.30;;;;;;;-5.06;73.02;100923.50;5113239;28;20020;-69
2023/12/02 03:04:22;;;;;;;6.03;3.53;;;;;;;-4.92;73.16;100941.00;5113881;28;20028;-69
2023/12/02 03:06:47;;;;;;;7.57;3.60;;;;;;;-4.79;72.94;100953.25;5114691;28;20031;-70
2023/12/02 03:09:14;;;;;;;5.35;3.67;;;;;;;-4.68;73.03;100947.31;5117477;28;20027;-69
2023/12/02 03:11:39;;;;;;;5.30;3.28;;;;;;;-4.56;72.77;100946.53;5117211;28;20032;-70
2023/12/02 03:14:05;;;;;;;6.75;3.50;;;;;;;-4.50;72.89;100946.16;5098772;28;20110;-69
2023/12/02 03:16:30;;;;;;;5.22;3.00;;;;;;;-4.38;72.70;100946.28;5116562;28;20058;-70
2023/12/02 03:18:56;;;;;;;5.00;3.42;;;;;;;-4.31;72.75;100940.53;5115715;28;20386;-69
2023/12/02 03:21:21;;;;;;;5.70;3.30;;;;;;;-4.22;73.04;100949.59;5116681;28;20076;-69
2023/12/02 03:23:49;;;;;;;5.60;3.28;;;;;;;-4.17;72.90;100946.66;5116749;27;20390;-69
2023/12/02 03:26:15;;;;;;;5.78;3.60;;;;;;;-4.32;73.29;100914.38;5116289;28;20039;-69
2023/12/02 03:28:40;;;;;;;5.78;3.92;;;;;;;-4.23;73.50;100921.66;5114613;28;20035;-70
2023/12/02 03:31:06;;;;;;;5.32;3.60;;;;;;;-4.20;74.43;100933.75;5098489;28;20035;-69
2023/12/02 03:33:31;;;;;;;5.90;3.53;;;;;;;-4.03;74.17;100936.09;5098258;28;20081;-69
2023/12/02 03:35:58;;;;;;;5.28;3.58;;;;;;;-4.14;74.64;100935.94;5116238;28;20769;-70
2023/12/02 03:38:24;;;;;;;6.18;3.50;;;;;;;-3.95;74.47;100944.31;5132215;27;20070;-70
2023/12/02 03:40:49;;;;;;;5.63;3.67;;;;;;;-4.05;74.67;100924.84;5113917;28;20062;-70
2023/12/02 03:43:14;;;;;;;4.43;3.25;;;;;;;-3.93;75.03;100945.06;5110308;28;20109;-69
2023/12/02 03:45:40;;;;;;;6.45;3.50;;;;;;;-4.02;74.82;100919.38;5113542;28;20023;-69
2023/12/02 03:48:05;;;;;;;5.03;3.58;;;;;;;-3.99;75.34;100947.25;5114643;28;20027;-69
2023/12/02 03:50:31;;;;;;;5.88;3.58;;;;;;;-3.87;75.59;100944.66;5098115;28;20059;-70
2023/12/02 03:52:56;;;;;;;6.22;3.63;;;;;;;-3.75;74.98;100942.13;5116580;28;20023;-70
2023/12/02 03:55:21;;;;;;;5.38;3.47;;;;;;;-3.70;74.45;100940.03;5114616;28;20119;-70
2023/12/02 03:57:47;;;;;;;7.88;3.80;;;;;;;-3.66;74.83;100934.47;5114544;28;20367;-69
2023/12/02 04:00:19;;;;;;;5.82;3.20;;;;;;;-3.80;74.39;100917.00;5116645;28;20098;-70
2023/12/02 04:02:44;;;;;;;7.53;3.63;;;;;;;-3.69;74.35;100924.16;5114866;28;20050;-69
2023/12/02 04:05:12;;;;;;;6.15;3.65;;;;;;;-3.72;74.53;100931.41;5115327;28;20478;-70
2023/12/02 04:07:38;;;;;;;5.22;3.40;;;;;;;-3.83;73.83;100917.19;5112651;28;20035;-69
2023/12/02 04:10:04;;;;;;;4.97;3.47;;;;;;;-3.86;73.70;100925.28;5113388;28;20023;-69
2023/12/02 04:12:30;;;;;;;5.53;3.20;;;;;;;-3.99;74.19;100916.56;5114701;28;20031;-69
2023/12/02 04:14:56;;;;;;;5.50;3.42;;;;;;;-4.00;73.71;100924.56;5115669;28;20087;-68
2023/12/02 04:17:22;;;;;;;4.47;3.40;;;;;;;-4.12;73.83;100907.81;5114933;28;20057;-68
2023/12/02 04:19:47;;;;;;;4.57;3.33;;;;;;;-4.12;74.01;100915.69;5115598;28;20032;-69
2023/12/02 04:22:13;;;;;;;5.20;3.00;;;;;;;-4.21;73.59;100916.28;5114446;28;20081;-69
2023/12/02 04:24:39;;;;;;;4.50;2.92;;;;;;;-4.26;73.38;100920.06;5115403;28;20022;-69
2023/12/02 04:27:05;;;;;;;6.07;3.00;;;;;;;-4.56;73.38;100880.06;5097313;28;20042;-68
2023/12/02 04:29:31;;;;;;;4.30;2.85;;;;;;;-4.40;73.45;100908.75;5114249;28;20036;-69
2023/12/02 04:31:57;;;;;;;4.55;2.95;;;;;;;-4.47;73.97;100921.47;5114145;28;20107;-69
2023/12/02 04:34:22;;;;;;;6.32;3.00;;;;;;;-4.51;73.24;100915.56;5113851;28;20035;-69
2023/12/02 04:36:48;;;;;;;3.83;2.78;;;;;;;-4.52;73.37;100911.25;5116404;28;20140;-68
2023/12/02 04:39:14;;;;;;;5.03;3.25;;;;;;;-4.63;73.43;100894.53;5116771;28;20019;-69
2023/12/02 04:41:40;;;;;;;4.38;3.00;;;;;;;-4.50;73.29;100917.25;5101417;28;20035;-68
2023/12/02 04:44:06;;;;;;;6.07;3.55;;;;;;;-4.50;73.18;100914.66;5120156;27;20036;-68
2023/12/02 04:46:31;;;;;;;4.07;2.75;;;;;;;-4.55;73.04;100918.50;5101709;28;20038;-69
2023/12/02 04:48:57;;;;;;;3.80;2.75;;;;;;;-4.58;73.02;100921.31;5119886;28;20028;-68
2023/12/02 04:51:23;;;;;;;4.65;2.83;;;;;;;-4.57;72.81;100905.47;5119971;28;20114;-68
2023/12/02 04:53:48;;;;;;;3.55;2.80;;;;;;;-4.59;72.69;100911.78;5118238;28;20024;-69
2023/12/02 04:56:13;;;;;;;4.70;2.90;;;;;;;-4.58;72.75;100910.81;5118447;28;20032;-69
2023/12/02 04:58:39;;;;;;;3.95;2.83;;;;;;;-4.66;72.75;100899.97;5119652;27;20054;-69
2023/12/02 05:01:04;;;;;;;4.20;2.50;;;;;;;-4.63;72.82;100915.53;5116833;28;20062;-69
2023/12/02 05:03:30;;;;;;;4.30;2.72;;;;;;;-4.64;72.54;100919.91;5115019;28;20031;-69
2023/12/02 05:05:55;;;;;;;3.13;2.38;;;;;;;-4.60;72.58;100921.44;5118315;28;20042;-69
2023/12/02 05:08:21;;;;;;;5.07;3.30;;;;;;;-5.16;73.08;100927.66;5117619;28;20035;-69
2023/12/02 05:10:46;;;;;;;4.65;2.95;;;;;;;-5.25;74.32;100921.19;5119249;27;20031;-69
2023/12/02 05:13:11;;;;;;;4.03;2.80;;;;;;;-5.18;74.31;100908.53;5119183;27;20031;-69
2023/12/02 05:15:37;;;;;;;5.13;3.05;;;;;;;-4.93;73.53;100932.31;5119033;28;20023;-69
2023/12/02 05:18:02;;;;;;;4.88;3.15;;;;;;;-4.87;73.41;100931.03;5117776;28;20095;-68
2023/12/02 05:20:28;;;;;;;4.28;2.72;;;;;;;-4.89;73.51;100930.31;5118216;28;20039;-68
2023/12/02 05:22:53;;;;;;;5.35;3.03;;;;;;;-4.77;73.52;100919.03;5118422;28;20064;-68
2023/12/02 05:25:19;;;;;;;4.38;2.90;;;;;;;-4.56;73.80;100924.69;5120985;28;20019;-68
2023/12/02 05:27:44;;;;;;;4.78;3.08;;;;;;;-4.58;73.20;100902.94;5119917;28;20501;-69
2023/12/02 05:30:12;;;;;;;4.20;2.67;;;;;;;-4.31;73.21;100929.19;5100651;28;20057;-68
2023/12/02 05:32:38;;;;;;;4.72;2.95;;;;;;;-4.32;72.84;100915.22;5118682;27;20031;-69
2023/12/02 05:35:04;;;;;;;5.50;3.00;;;;;;;-4.29;73.08;100912.38;5100275;28;20057;-69
2023/12/02 05:37:29;;;;;;;5.53;2.72;;;;;;;-4.07;73.08;100934.63;5096482;28;20523;-68
2023/12/02 05:39:55;;;;;;;4.95;3.20;;;;;;;-3.94;73.22;100932.00;5112995;28;20031;-68
2023/12/02 05:42:20;;;;;;;5.18;3.00;;;;;;;-3.83;73.02;100934.78;5100508;28;20508;-68
2023/12/02 05:44:45;;;;;;;4.07;3.05;;;;;;;-3.74;73.59;100935.91;5106930;28;20035;-69
2023/12/02 05:47:11;;;;;;;5.32;3.20;;;;;;;-3.79;73.70;100934.44;5097383;28;20036;-71
2023/12/02 05:49:37;;;;;;;4.40;2.95;;;;;;;-3.72;73.70;100936.66;5096415;28;20100;-71
2023/12/02 05:52:02;;;;;;;6.45;3.22;;;;;;;-3.98;75.26;100941.03;5098168;28;20032;-69
2023/12/02 05:54:27;;;;;;;4.45;3.03;;;;;;;-3.86;75.27;100930.56;5079900;28;20027;-69
2023/12/02 05:56:53;;;;;;;4.43;3.08;;;;;;;-3.92;76.02;100941.47;5079742;28;20036;-70
2023/12/02 05:59:21;;;;;;;4.43;3.05;;;;;;;-3.62;76.17;100941.19;5097847;28;20044;-69
2023/12/02 06:01:46;;;;;;;5.55;3.10;;;;;;;-3.77;76.58;100931.72;5079519;28;20057;-69
2023/12/02 06:04:12;;;;;;;4.60;3.10;;;;;;;-3.79;76.43;100938.88;5096451;28;20032;-69
2023/12/02 06:06:37;;;;;;;5.22;3.25;;;;;;;-3.84;77.13;100933.94;5097880;28;20026;-69
2023/12/02 06:09:03;;;;;;;6.30;3.13;;;;;;;-3.63;76.98;100933.41;5098113;28;20034;-69
2023/12/02 06:11:28;;;;;;;4.63;3.05;;;;;;;-3.75;76.56;100898.25;5096168;28;20101;-69
2023/12/02 06:13:54;;;;;;;4.85;2.88;;;;;;;-3.45;76.55;100941.81;5097457;28;20078;-70
2023/12/02 06:16:19;;;;;;;4.72;3.20;;;;;;;-3.31;76.21;100950.47;5095970;28;20028;-69
2023/12/02 06:18:44;;;;;;;4.82;3.00;;;;;;;-3.27;76.54;100947.63;5092345;28;20039;-69
2023/12/02 06:21:11;;;;;;;4.90;3.20;;;;;;;-3.13;76.14;100950.13;5079998;28;20028;-69
2023/12/02 06:23:37;;;;;;;4.35;3.03;;;;;;;-3.19;76.60;100947.91;5097419;28;20024;-70
2023/12/02 06:26:02;;;;;;;4.43;3.33;;;;;;;-3.16;76.72;100942.44;5094471;28;20482;-69
2023/12/02 06:28:28;;;;;;;4.68;3.10;;;;;;;-2.94;76.32;100953.16;5096182;28;20092;-69
2023/12/02 06:30:53;;;;;;;5.82;3.65;;;;;;;-2.76;75.64;100956.25;5096381;28;20028;-71
2023/12/02 06:33:19;;;;;;;4.95;3.35;;;;;;;-2.88;75.78;100952.72;5063644;28;20024;-69
2023/12/02 06:35:45;;;;;;;4.53;3.22;;;;;;;-2.81;76.14;100962.78;5099231;28;20047;-69
2023/12/02 06:38:10;;;;;;;4.05;2.95;;;;;;;-3.19;75.79;100875.06;5095760;28;20027;-69
2023/12/02 06:40:36;;;;;;;6.90;3.40;;;;;;;-3.03;75.26;100879.25;5078936;28;20040;-70
2023/12/02 06:43:01;;;;;;;5.57;3.85;;;;;;;-2.46;75.24;100957.63;5096110;28;20139;-68
2023/12/02 06:45:26;;;;;;;3.65;2.88;;;;;;;-2.39;75.14;100958.88;5097183;28;20024;-69
2023/12/02 06:47:52;;;;;;;5.43;3.65;;;;;;;-2.31;75.04;100960.97;5096772;28;20031;-67
2023/12/02 06:50:17;;;;;;;5.72;3.70;;;;;;;-2.25;75.05;100964.00;5078675;28;20372;-70
2023/12/02 06:52:43;;;;;;;7.57;4.50;;;;;;;-2.22;74.83;100955.84;5095777;28;20529;-68
2023/12/02 06:55:09;;;;;;;6.70;4.38;;;;;;;-2.28;74.87;100950.19;5095271;28;20340;-69
2023/12/02 06:57:35;;;;;;;6.30;4.93;;;;;;;-2.17;74.75;100960.78;5078966;28;20026;-68
2023/12/02 07:00:00;;;;;;;6.20;3.92;;;;;;;-2.26;74.50;100940.38;5096764;28;20087;-67
2023/12/02 07:02:26;;;;;;;5.75;4.07;;;;;;;-2.09;74.52;100962.84;5078477;28;20433;-69
2023/12/02 07:04:52;;;;;;;5.20;3.75;;;;;;;-2.08;74.80;100968.00;5062333;28;20073;-67
2023/12/02 07:07:18;;;;;;;5.13;3.58;;;;;;;-2.15;74.57;100950.97;5079057;28;20140;-69
2023/12/02 07:09:43;;;;;;;5.32;3.67;;;;;;;-2.03;74.62;100968.50;5096511;28;20023;-71
2023/12/02 07:12:09;;;;;;;5.53;3.70;;;;;;;-2.00;74.45;100965.63;5095524;28;20032;-69
2023/12/02 07:14:35;;;;;;;4.07;3.33;;;;;;;-2.08;75.07;100941.66;5095893;28;20031;-68
2023/12/02 07:17:00;;;;;;;5.53;3.40;;;;;;;-1.93;75.14;100968.66;5092228;28;20502;-69
2023/12/02 07:19:25;;;;;;;5.93;4.07;;;;;;;-1.87;74.87;100975.28;5095354;28;20032;-69
2023/12/02 07:21:51;;;;;;;6.47;4.20;;;;;;;-1.81;74.88;100973.03;5092853;28;20027;-68
2023/12/02 07:24:16;;;;;;;6.25;4.03;;;;;;;-1.84;74.89;100960.06;5095437;28;20103;-67
2023/12/02 07:26:43;;;;;;;7.68;4.65;;;;;;;-1.74;75.33;100976.03;5094851;28;20022;-67
2023/12/02 07:29:09;;;;;;;6.18;4.63;;;;;;;-1.70;75.16;100975.69;5096370;28;20129;-67
2023/12/02 07:31:35;;;;;;;6.07;3.75;;;;;;;-1.65;75.48;100985.91;5096290;28;20046;-67
2023/12/02 07:34:00;;;;;;;6.72;4.60;;;;;;;-1.63;76.10;100977.84;5077114;28;20036;-68
2023/12/02 07:36:25;;;;;;;5.13;3.88;;;;;;;-1.52;76.07;100978.75;5092244;28;20039;-67
2023/12/02 07:38:51;;;;;;;6.97;4.78;;;;;;;-1.54;76.24;100982.44;5093447;28;20063;-68
2023/12/02 07:41:16;;;;;;;6.07;3.90;;;;;;;-1.53;77.08;100984.97;5095954;28;20028;-68
2023/12/02 07:43:41;;;;;;;5.38;3.38;;;;;;;-1.31;76.46;100981.53;5094119;28;20055;-68
2023/12/02 07:46:07;;;;;;;4.22;2.95;;;;;;;-1.47;75.97;100965.19;5093767;28;20035;-67
2023/12/02 07:48:32;;;;;;;3.33;2.70;;;;;;;-1.39;77.12;100991.84;5073417;28;20035;-68
2023/12/02 07:50:58;;;;;;;4.18;2.72;;;;;;;-1.24;76.49;100997.75;5094498;28;20028;-68
2023/12/02 07:53:23;;;;;;;3.72;2.90;;;;;;;-1.17;76.77;100993.66;5095953;28;20043;-68
2023/12/02 07:55:48;;;;;;;3.90;2.90;;;;;;;-1.12;76.78;100999.44;5093978;28;20032;-69
2023/12/02 07:58:14;;;;;;;4.60;2.80;;;;;;;-1.00;76.72;100998.47;5094730;28;20348;-68
2023/12/02 08:00:39;;;;;;;3.65;2.60;;;;;;;-1.12;76.62;100966.91;5094842;28;20050;-68
2023/12/02 08:03:05;;;;;;;4.20;2.58;;;;;;;-0.93;76.21;100998.81;5094777;28;20058;-68
2023/12/02 08:05:30;;;;;;;3.88;2.78;;;;;;;-0.91;76.42;100996.06;5094569;28;20032;-68
2023/12/02 08:07:56;;;;;;;3.80;2.80;;;;;;;-1.13;76.77;100995.09;5093753;28;20081;-68
2023/12/02 08:10:21;;;;;;;3.55;2.65;;;;;;;-1.11;76.91;101000.28;5094655;28;20040;-69
2023/12/02 08:12:47;;;;;;;3.35;2.60;;;;;;;-1.10;77.43;101009.88;5079975;28;20513;-69
2023/12/02 08:15:12;;;;;;;4.93;2.90;;;;;;;-1.19;77.69;101008.78;5097844;28;20032;-68
2023/12/02 08:17:38;;;;;;;4.75;3.20;;;;;;;-1.00;77.11;101006.38;5096855;28;20024;-69
2023/12/02 08:20:05;;;;;;;4.30;3.03;;;;;;;-0.96;76.84;101017.56;5094723;28;20032;-70
2023/12/02 08:22:31;;;;;;;4.85;3.10;;;;;;;-0.91;76.51;101019.84;5094332;28;20036;-71
2023/12/02 08:24:56;;;;;;;4.28;3.35;;;;;;;-0.95;76.57;101017.44;5077413;28;20050;-71
2023/12/02 08:27:22;;;;;;;4.15;3.22;;;;;;;-0.89;76.25;101020.56;5095097;28;20032;-69
2023/12/02 08:29:47;;;;;;;5.35;3.40;;;;;;;-0.93;76.51;101019.94;5094846;28;20024;-68
2023/12/02 08:32:13;;;;;;;5.22;3.72;;;;;;;-0.91;76.17;101022.50;5094057;28;20036;-68
2023/12/02 08:34:38;;;;;;;5.25;3.58;;;;;;;-1.04;76.05;101004.94;5093461;28;20062;-68
2023/12/02 08:37:04;;;;;;;4.93;3.60;;;;;;;-0.87;76.21;101031.84;5093527;28;20062;-68
2023/12/02 08:39:29;;;;;;;5.60;3.92;;;;;;;-0.75;75.88;101031.75;5076896;28;20108;-67
2023/12/02 08:41:54;;;;;;;5.78;3.63;;;;;;;-0.74;75.38;101027.28;5093497;28;20034;-69
2023/12/02 08:44:20;;;;;;;5.13;3.67;;;;;;;-0.73;75.15;101034.25;5080287;28;20068;-68
2023/12/02 08:46:45;;;;;;;5.60;3.80;;;;;;;-0.74;75.55;101040.50;5097395;28;20036;-67
2023/12/02 08:49:10;;;;;;;6.70;3.63;;;;;;;-0.83;75.31;101020.06;5084760;28;20055;-69
2023/12/02 08:51:36;;;;;;;4.25;3.38;;;;;;;-0.67;75.07;101028.47;5092346;28;20036;-68
2023/12/02 08:54:03;;;;;;;5.72;3.90;;;;;;;-0.74;75.33;101033.41;5108939;28;20019;-69
2023/12/02 08:56:28;;;;;;;5.60;4.10;;;;;;;-0.62;75.28;101050.13;5100621;28;20107;-69
2023/12/02 08:58:54;;;;;;;7.65;4.40;;;;;;;-0.54;75.30;101055.63;5099368;28;20071;-68
2023/12/02 09:01:20;;;;;;;5.60;3.97;;;;;;;-0.49;75.24;101052.63;5094387;28;20089;-69
2023/12/02 09:03:46;;;;;;;6.03;4.07;;;;;;;-0.59;75.35;101065.72;5099317;28;20043;-68
2023/12/02 09:06:11;;;;;;;5.75;4.13;;;;;;;-0.59;75.33;101068.38;5097615;28;20024;-69
2023/12/02 09:08:38;;;;;;;5.80;3.78;;;;;;;-0.52;75.24;101069.56;5103892;28;20075;-68
2023/12/02 09:11:05;;;;;;;4.97;3.80;;;;;;;-0.58;75.93;101069.22;5107057;28;20103;-70
2023/12/02 09:13:39;;;;;;;5.40;4.00;;;;;;;-0.89;76.25;101068.09;5108019;28;20031;-70
2023/12/02 09:16:09;;;;;;;5.10;3.47;;;;;;;-1.19;76.88;101019.34;5105868;28;20016;-71
2023/12/02 09:18:36;;;;;;;5.32;3.60;;;;;;;-0.82;77.15;101062.25;5105487;28;20035;-70
2023/12/02 09:21:02;;;;;;;4.97;3.60;;;;;;;-0.74;76.81;101067.75;5100218;28;20024;-71
2023/12/02 09:23:28;;;;;;;5.25;3.63;;;;;;;-0.61;76.61;101067.66;5106756;28;20028;-70
2023/12/02 09:25:58;;;;;;;5.55;3.70;;;;;;;-0.64;76.39;101067.06;5107186;28;20134;-71
2023/12/02 09:28:29;;;;;;;4.78;3.30;;;;;;;-0.92;76.94;101053.34;5108372;28;20057;-71
2023/12/02 09:31:20;;;;;;;4.35;3.05;;;;;;;-0.68;76.62;101063.81;5106213;28;20064;-70
2023/12/02 09:33:54;;;;;;;5.25;3.53;;;;;;;-0.68;76.76;101061.16;5108957;28;20498;-71
2023/12/02 09:36:39;;;;;;;4.20;3.17;;;;;;;-0.60;76.96;101079.88;5095944;28;20122;-71
2023/12/02 09:39:16;;;;;;;4.45;3.30;;;;;;;-0.68;77.13;101076.19;5092811;28;20034;-71
2023/12/02 09:41:49;;;;;;;5.20;3.58;;;;;;;-0.64;76.65;101078.47;5096380;28;20024;-72
2023/12/02 09:44:38;;;;;;;5.00;3.70;;;;;;;-0.43;76.25;101075.94;5114260;28;20023;-70
2023/12/02 09:47:20;;;;;;;5.45;3.38;;;;;;;-0.37;75.78;101082.53;5096912;28;20039;-70
2023/12/02 09:50:11;;;;;;;5.05;3.70;;;;;;;-0.36;75.72;101087.72;5098887;28;20036;-71
2023/12/02 09:53:15;;;;;;;5.95;3.70;;;;;;;-0.59;75.96;101059.63;5096653;28;20023;-70
2023/12/02 09:55:53;;;;;;;4.55;4.00;;;;;;;-0.41;75.89;101081.09;5096966;28;20020;-71
2023/12/02 09:58:24;;;;;;;6.13;3.97;;;;;;;-0.35;75.97;101085.91;5098573;28;20058;-71
2023/12/02 10:01:07;;;;;;;6.35;4.40;;;;;;;-0.39;75.87;101069.44;5097003;28;20040;-71
2023/12/02 10:03:51;;;;;;;5.57;4.22;;;;;;;-0.26;75.70;101077.25;5098136;28;20035;-71
2023/12/02 10:06:49;;;;;;;5.63;4.05;;;;;;;-0.19;75.33;101080.25;5097152;28;20055;-71
2023/12/02 10:09:33;;;;;;;5.78;4.10;;;;;;;-0.06;75.06;101079.13;5098481;28;20032;-71
2023/12/02 10:12:10;;;;;;;6.80;4.10;;;;;;;-0.08;74.92;101059.06;5098343;28;20131;-70
2023/12/02 10:14:40;;;;;;;5.72;4.10;;;;;;;-0.05;74.97;101085.25;5096864;28;20032;-71
2023/12/02 10:17:09;;;;;;;5.40;3.78;;;;;;;-0.18;75.37;101068.69;5097398;28;20075;-72
2023/12/02 10:19:34;;;;;;;6.82;3.80;;;;;;;-0.17;75.84;101079.13;5094921;28;20130;-71
2023/12/02 10:22:02;;;;;;;4.55;3.50;;;;;;;-0.20;76.01;101079.38;5095338;28;20058;-71
2023/12/02 10:24:43;;;;;;;4.90;3.60;;;;;;;-0.17;76.17;101073.84;5096176;28;20028;-70
2023/12/02 10:27:14;;;;;;;5.18;3.60;;;;;;;-0.30;76.33;101067.84;5095854;28;20020;-71
2023/12/02 10:30:15;;;;;;;5.25;3.63;;;;;;;-0.32;76.97;101073.28;5096020;28;20432;-72
2023/12/02 10:33:09;;;;;;;5.43;3.65;;;;;;;-0.33;77.22;101076.91;5091452;28;20466;-72
2023/12/02 10:35:45;;;;;;;5.22;3.63;;;;;;;-0.49;77.81;101087.00;5096716;28;20067;-71
2023/12/02 10:38:22;;;;;;;5.25;3.95;;;;;;;-0.36;77.38;101086.88;5095635;28;20039;-71
2023/12/02 10:41:07;;;;;;;7.38;3.78;;;;;;;-0.60;77.95;101057.91;5096988;28;20024;-71
2023/12/02 10:43:42;;;;;;;6.03;3.80;;;;;;;-0.51;78.49;101091.56;5096866;28;20027;-72
2023/12/02 10:46:08;;;;;;;4.55;3.45;;;;;;;-0.65;78.23;101058.28;5097566;28;20035;-71
2023/12/02 10:48:38;;;;;;;5.05;3.95;;;;;;;-0.36;77.98;101092.16;5095989;28;20020;-70
2023/12/02 10:51:06;;;;;;;5.97;3.75;;;;;;;-0.50;78.04;101098.50;5095891;28;20056;-68
2023/12/02 10:53:34;;;;;;;4.97;3.58;;;;;;;-0.66;78.70;101069.81;5095055;28;20024;-67
2023/12/02 10:56:05;;;;;;;4.72;3.25;;;;;;;-0.49;78.37;101085.19;5090888;28;20028;-70
2023/12/02 10:58:31;;;;;;;5.00;3.67;;;;;;;-0.31;78.64;101098.75;5077907;28;20052;-70
2023/12/02 11:01:02;;;;;;;5.35;3.47;;;;;;;-0.28;78.22;101081.81;5096838;28;20039;-72
2023/12/02 11:03:31;;;;;;;6.43;4.10;;;;;;;-0.09;77.55;101097.06;5096095;28;20027;-72
2023/12/02 11:06:26;;;;;;;6.22;3.95;;;;;;;0.13;76.55;101093.50;5098396;28;20024;-73
2023/12/02 11:08:54;;;;;;;5.30;3.80;;;;;;;0.24;76.21;101098.78;5090753;28;20044;-72
2023/12/02 11:11:47;;;;;;;7.97;3.90;;;;;;;0.34;75.91;101097.06;5095287;28;20442;-71
2023/12/02 11:14:18;;;;;;;5.88;3.35;;;;;;;0.32;75.96;101098.16;5095508;28;20024;-71
2023/12/02 11:16:56;;;;;;;5.88;3.35;;;;;;;0.31;76.12;101102.59;5094669;28;20039;-73
2023/12/02 11:19:28;;;;;;;6.15;4.00;;;;;;;0.37;75.94;101101.28;5096838;28;20043;-72
2023/12/02 11:22:18;;;;;;;5.60;3.90;;;;;;;0.30;76.18;101100.06;5097210;28;20123;-72
2023/12/02 11:24:52;;;;;;;4.60;3.63;;;;;;;0.35;75.98;101089.94;5095510;28;20038;-72
2023/12/02 11:27:38;;;;;;;7.20;4.25;;;;;;;0.44;75.56;101099.78;5095985;28;20051;-72
2023/12/02 11:30:41;;;;;;;6.07;4.43;;;;;;;0.38;76.23;101095.84;5055044;28;20028;-72